Time;durP1;ratioP1;P1;durP2;ratioP2;P2;SDS_P1;SDS_P2;PMS_P1;PMS_P2;Temp;Humidity;BMP_temperature;BMP_pressure;BME280_temperature;BME280_humidity;BME280_pressure;Samples;Min_cycle;Max_cycle;Signal;HPM_P1;HPM_P2
2022/01/13 00:01:52;;;;;;;213.13;23.17;;;;;;;-146.64;100.00;100271.94;5102087;28;20028;-76
2022/01/13 00:04:18;;;;;;;245.98;23.58;;;;;;;-146.64;100.00;100271.94;5116436;27;20031;-76
2022/01/13 00:06:44;;;;;;;241.63;22.17;;;;;;;-146.64;100.00;100271.94;5100256;28;20101;-77
2022/01/13 00:09:09;;;;;;;266.30;24.40;;;;;;;-146.64;100.00;100271.94;5088947;28;20004;-75
2022/01/13 00:11:35;;;;;;;265.08;24.70;;;;;;;-146.64;100.00;100271.94;5101857;28;20474;-75
2022/01/13 00:16:44;;;;;;;276.23;25.55;;;;;;;-146.64;100.00;100537.94;5101791;27;20031;-76
2022/01/13 00:21:47;;;;;;;230.88;26.00;;;;;;;-146.64;100.00;100537.94;5107264;28;20039;-75
2022/01/13 00:24:13;;;;;;;244.85;26.38;;;;;;;-146.64;100.00;100537.94;5100963;28;20117;-75
2022/01/13 00:26:39;;;;;;;374.40;29.98;;;;;;;-146.64;100.00;100537.94;5110187;28;20058;-76
2022/01/13 00:29:04;;;;;;;333.45;29.30;;;;;;;-146.64;100.00;100537.94;5104002;28;20028;-75
2022/01/13 00:31:33;;;;;;;186.88;26.65;;;;;;;-146.64;100.00;100803.97;5086929;28;20343;-76
2022/01/13 00:34:01;;;;;;;306.50;28.02;;;;;;;-146.64;100.00;100803.97;5095094;28;20060;-75
2022/01/13 00:36:29;;;;;;;353.13;32.22;;;;;;;-146.64;100.00;100803.97;5109776;28;20023;-75
2022/01/13 00:38:55;;;;;;;231.00;29.90;;;;;;;-146.64;100.00;100803.97;5099948;28;20032;-76
2022/01/13 00:41:21;;;;;;;239.45;28.90;;;;;;;-146.64;100.00;100803.97;5106970;28;20469;-76
2022/01/13 00:43:47;;;;;;;286.30;30.55;;;;;;;-146.64;100.00;100803.97;5106372;28;20020;-76
2022/01/13 00:46:20;;;;;;;256.87;34.00;;;;;;;-146.64;100.00;100803.97;5099947;28;20032;-76
2022/01/13 00:48:46;;;;;;;268.90;30.63;;;;;;;-146.64;100.00;100803.97;5098841;28;20276;-76
2022/01/13 00:51:11;;;;;;;243.85;32.33;;;;;;;-146.64;100.00;100537.94;5092454;27;20053;-75
2022/01/13 00:53:36;;;;;;;257.10;30.15;;;;;;;-146.64;100.00;100537.94;5112528;28;20034;-75
2022/01/13 00:56:02;;;;;;;241.95;28.73;;;;;;;-146.64;100.00;100537.94;5112686;27;20063;-76
2022/01/13 00:58:33;;;;;;;243.18;33.88;;;;;;;-146.64;100.00;100537.94;5093074;28;20122;-76
2022/01/13 01:01:00;;;;;;;223.27;33.83;;;;;;;-146.64;100.00;100803.97;5111807;28;20106;-76
2022/01/13 01:03:26;;;;;;;252.30;31.50;;;;;;;-146.64;100.00;100803.97;5123037;27;20030;-75
2022/01/13 01:05:52;;;;;;;315.60;34.37;;;;;;;-146.64;100.00;100803.97;5113690;27;20030;-75
2022/01/13 01:08:17;;;;;;;281.30;31.77;;;;;;;-146.64;100.00;100803.97;5109378;27;20019;-75
2022/01/13 01:10:45;;;;;;;275.23;32.00;;;;;;;-146.64;100.00;100803.97;5116453;27;20110;-75
2022/01/13 01:13:13;;;;;;;233.23;31.23;;;;;;;-146.64;100.00;101070.00;5101595;27;20463;-75
2022/01/13 01:15:42;;;;;;;309.33;32.25;;;;;;;-146.64;100.00;100803.97;5109288;27;20046;-75
2022/01/13 01:18:20;;;;;;;281.75;36.00;;;;;;;-146.64;100.00;100803.97;5127420;27;20042;-75
2022/01/13 01:20:52;;;;;;;336.88;36.92;;;;;;;-146.64;100.00;101070.00;5097358;27;20031;-76
2022/01/13 01:23:22;;;;;;;354.08;36.78;;;;;;;-146.64;100.00;100803.97;5108329;27;20027;-76
2022/01/13 01:26:21;;;;;;;358.55;34.97;;;;;;;-146.64;100.00;101070.00;5095974;27;20083;-75
2022/01/13 01:28:53;;;;;;;289.48;35.10;;;;;;;-146.64;100.00;101070.00;5104437;27;20048;-76
2022/01/13 01:31:25;;;;;;;224.48;34.70;;;;;;;-146.64;100.00;101070.00;5102346;27;20036;-76
2022/01/13 01:34:04;;;;;;;303.60;36.33;;;;;;;-146.64;100.00;101070.00;5115759;27;20023;-76
2022/01/13 01:36:31;;;;;;;309.42;38.35;;;;;;;-146.64;100.00;101070.00;5110961;27;20114;-75
2022/01/13 01:38:57;;;;;;;;;;;;;;;-146.64;100.00;101070.00;5098838;27;20027;-75
2022/01/13 01:41:23;;;;;;;215.45;34.25;;;;;;;-146.64;100.00;101070.00;5103844;27;19918;-76
2022/01/13 01:43:50;;;;;;;235.25;33.78;;;;;;;-146.64;100.00;101070.00;5115873;27;20027;-75
2022/01/13 01:46:15;;;;;;;;;;;;;;;-146.64;100.00;101070.00;5113968;27;20022;-76
2022/01/13 01:48:40;;;;;;;205.45;33.17;;;;;;;-146.64;100.00;101336.06;5116216;27;19979;-75
2022/01/13 01:51:07;;;;;;;198.80;33.05;;;;;;;-146.64;100.00;101336.06;5088913;28;20181;-75
2022/01/13 01:53:32;;;;;;;228.50;35.05;;;;;;;-146.64;100.00;101336.06;5120275;27;20103;-76
2022/01/13 01:55:58;;;;;;;224.32;33.83;;;;;;;-146.64;100.00;101336.06;5109253;28;20066;-75
2022/01/13 01:58:28;;;;;;;213.23;32.72;;;;;;;-146.64;100.00;101336.06;5107712;27;20049;-75
2022/01/13 02:00:54;;;;;;;195.23;33.13;;;;;;;-146.64;100.00;101336.06;5108859;27;20049;-75
2022/01/13 02:03:20;;;;;;;175.23;32.10;;;;;;;-146.64;100.00;101336.06;5098528;27;20046;-75
2022/01/13 02:05:47;;;;;;;218.10;34.05;;;;;;;-146.64;100.00;101336.06;5098786;27;20043;-75
2022/01/13 02:08:12;;;;;;;;;;;;;;;-146.64;100.00;101336.06;5103009;28;20035;-75
2022/01/13 02:10:38;;;;;;;206.93;29.83;;;;;;;-146.64;100.00;101336.06;5102412;27;19915;-75
2022/01/13 02:13:07;;;;;;;236.05;32.35;;;;;;;-146.64;100.00;101336.06;5093918;28;20035;-75
2022/01/13 02:15:35;;;;;;;229.57;32.13;;;;;;;-146.64;100.00;101336.06;5106817;27;20516;-75
2022/01/13 02:18:04;;;;;;;260.85;34.55;;;;;;;-146.64;100.00;101336.06;5095080;27;20519;-75
2022/01/13 02:20:43;;;;;;;227.75;33.55;;;;;;;-146.64;100.00;101602.13;5094164;27;20019;-75
2022/01/13 02:23:09;;;;;;;213.90;33.40;;;;;;;-146.64;100.00;101602.13;5115317;27;20027;-75
2022/01/13 02:25:34;;;;;;;162.55;25.38;;;;;;;-146.64;100.00;101602.13;5094976;28;20031;-75
2022/01/13 02:28:00;;;;;;;272.50;35.42;;;;;;;-146.64;100.00;101602.13;5104889;27;20106;-75
2022/01/13 02:30:26;;;;;;;253.15;34.28;;;;;;;-146.64;100.00;101602.13;5111474;27;20378;-75
2022/01/13 02:32:52;;;;;;;293.25;34.03;;;;;;;-146.64;100.00;101602.13;5113986;27;20023;-76
2022/01/13 02:35:17;;;;;;;264.30;35.20;;;;;;;-146.64;100.00;101602.13;5111558;27;20631;-75
2022/01/13 02:37:42;;;;;;;313.92;35.72;;;;;;;-146.64;100.00;101602.13;5129070;27;20027;-75
2022/01/13 02:40:08;;;;;;;277.52;32.90;;;;;;;-146.64;100.00;101868.22;5120249;27;20020;-75
2022/01/13 02:42:34;;;;;;;283.77;34.55;;;;;;;-146.64;100.00;101602.13;5112830;27;20030;-75
2022/01/13 02:45:04;;;;;;;233.98;31.63;;;;;;;-146.64;100.00;101868.22;5111827;27;20019;-75
2022/01/13 02:47:59;;;;;;;289.33;35.30;;;;;;;-146.64;100.00;101868.22;5110948;27;20474;-75
2022/01/13 02:50:22;;;;;;;287.30;34.45;;;;;;;-146.64;100.00;101868.22;5115194;27;20454;-75
2022/01/13 02:52:47;;;;;;;324.75;34.70;;;;;;;-146.64;100.00;101868.22;5106090;27;20074;-75
2022/01/13 02:55:13;;;;;;;329.55;35.35;;;;;;;-146.64;100.00;101868.22;5111124;27;20028;-75
2022/01/13 02:57:41;;;;;;;346.30;34.80;;;;;;;-146.64;100.00;101868.22;5108001;27;20083;-76
2022/01/13 03:00:08;;;;;;;283.88;33.17;;;;;;;-146.64;100.00;101868.22;5114218;27;20106;-75
2022/01/13 03:02:33;;;;;;;235.07;33.38;;;;;;;-146.64;100.00;101868.22;5125169;27;20387;-75
2022/01/13 03:04:59;;;;;;;285.52;35.10;;;;;;;-146.64;100.00;102134.31;5112804;27;20122;-76
2022/01/13 03:07:25;;;;;;;325.15;36.58;;;;;;;-146.64;100.00;102134.31;5113806;27;20023;-75
2022/01/13 03:09:51;;;;;;;362.55;35.47;;;;;;;-146.64;100.00;102134.31;5103642;27;20042;-76
2022/01/13 03:12:16;;;;;;;282.08;34.85;;;;;;;-146.64;100.00;102134.31;5129045;27;20086;-75
2022/01/13 03:14:41;;;;;;;379.70;40.10;;;;;;;-146.64;100.00;102134.31;5105890;27;20092;-75
2022/01/13 03:17:07;;;;;;;343.52;37.88;;;;;;;-146.64;100.00;102134.31;5105631;27;20553;-75
2022/01/13 03:19:32;;;;;;;307.15;37.90;;;;;;;-146.64;100.00;102134.31;5111310;27;20020;-75
2022/01/13 03:21:57;;;;;;;365.17;42.15;;;;;;;-146.64;100.00;102134.31;5103961;27;20075;-75
2022/01/13 03:24:23;;;;;;;337.58;38.55;;;;;;;-146.64;100.00;102134.31;5103777;28;20663;-75
2022/01/13 03:26:49;;;;;;;400.42;42.25;;;;;;;-146.64;100.00;102134.31;5084672;27;20066;-75
2022/01/13 03:29:16;;;;;;;333.23;37.42;;;;;;;-146.64;100.00;102134.31;5091325;27;20019;-75
2022/01/13 03:31:45;;;;;;;328.00;39.90;;;;;;;-146.64;100.00;102134.31;5102705;27;20114;-75
2022/01/13 03:34:13;;;;;;;318.42;38.13;;;;;;;-146.64;100.00;102134.31;5096825;27;20126;-75
2022/01/13 03:36:38;;;;;;;381.38;40.63;;;;;;;-146.64;100.00;102134.31;5084318;28;20023;-75
2022/01/13 03:39:05;;;;;;;268.75;35.67;;;;;;;-146.64;100.00;102134.31;5095468;27;20023;-75
2022/01/13 03:41:31;;;;;;;324.00;38.38;;;;;;;-146.64;100.00;102134.31;5112151;27;20073;-75
2022/01/13 03:43:58;;;;;;;313.30;38.28;;;;;;;-146.64;100.00;102134.31;5115182;27;20509;-75
2022/01/13 03:46:24;;;;;;;;;;;;;;;-146.64;100.00;102134.31;5103292;27;20059;-75
2022/01/13 03:48:50;;;;;;;272.13;34.00;;;;;;;-146.64;100.00;102134.31;5115116;27;19936;-76
2022/01/13 03:51:15;;;;;;;204.18;35.15;;;;;;;-146.64;100.00;102400.44;5130971;27;20081;-75
2022/01/13 03:54:18;;;;;;;241.32;34.88;;;;;;;-146.64;100.00;102134.31;5115048;27;20083;-76
2022/01/13 03:57:02;;;;;;;313.67;34.45;;;;;;;-146.64;100.00;102134.31;5109132;27;20113;-75
2022/01/13 03:59:46;;;;;;;290.85;35.70;;;;;;;-146.64;100.00;102400.44;5133152;27;20061;-76
2022/01/13 04:02:13;;;;;;;300.33;32.65;;;;;;;-146.64;100.00;102400.44;5125989;27;20027;-75
2022/01/13 04:04:42;;;;;;;;;;;;;;;-146.64;100.00;102134.31;5114510;27;20042;-75
2022/01/13 04:07:22;;;;;;;255.30;30.75;;;;;;;-146.64;100.00;102134.31;5103615;27;19922;-75
2022/01/13 04:09:47;;;;;;;269.60;32.65;;;;;;;-146.64;100.00;102134.31;5113595;27;20110;-75
2022/01/13 04:12:14;;;;;;;289.75;32.70;;;;;;;-146.64;100.00;102134.31;5134985;27;20059;-75
2022/01/13 04:14:47;;;;;;;205.32;31.40;;;;;;;-146.64;100.00;102134.31;5115007;27;20019;-75
2022/01/13 04:17:16;;;;;;;299.27;31.00;;;;;;;-146.64;100.00;102134.31;5102870;28;20114;-76
2022/01/13 04:19:41;;;;;;;259.75;31.17;;;;;;;-146.64;100.00;102134.31;5111013;28;20027;-76
2022/01/13 04:22:08;;;;;;;273.17;31.27;;;;;;;-146.64;100.00;102134.31;5105600;27;20038;-75
2022/01/13 04:24:35;;;;;;;273.55;31.88;;;;;;;-146.64;100.00;102400.44;5120504;27;20012;-76
2022/01/13 04:27:01;;;;;;;249.23;29.35;;;;;;;-146.64;100.00;102134.31;5112263;28;20026;-75
2022/01/13 04:29:49;;;;;;;219.00;30.30;;;;;;;-146.64;100.00;102400.44;5095236;28;20062;-76
2022/01/13 04:32:12;;;;;;;235.18;29.83;;;;;;;-146.64;100.00;102400.44;5109991;27;20084;-75
2022/01/13 04:34:37;;;;;;;293.55;28.55;;;;;;;-146.64;100.00;102134.31;5111770;28;20126;-75
2022/01/13 04:37:04;;;;;;;253.98;28.25;;;;;;;-146.64;100.00;102400.44;5112334;27;20023;-76
2022/01/13 04:39:31;;;;;;;198.35;27.08;;;;;;;-146.64;100.00;102400.44;5113043;28;20024;-75
2022/01/13 04:41:56;;;;;;;310.38;30.33;;;;;;;-146.64;100.00;102134.31;5101947;28;20114;-75
2022/01/13 04:44:24;;;;;;;253.02;30.40;;;;;;;-146.64;100.00;102400.44;5118907;27;20073;-75
2022/01/13 04:46:51;;;;;;;222.70;29.05;;;;;;;-146.64;100.00;102400.44;5101337;27;20503;-75
2022/01/13 04:49:18;;;;;;;;;;;;;;;-146.64;100.00;102400.44;5120798;27;20131;-76
2022/01/13 04:51:47;;;;;;;253.73;28.57;;;;;;;-146.64;100.00;102400.44;5114531;27;19916;-75
2022/01/13 04:54:12;;;;;;;203.30;26.98;;;;;;;-146.64;100.00;102134.31;5099324;27;20071;-75
2022/01/13 04:57:04;;;;;;;210.90;26.50;;;;;;;-146.64;100.00;102134.31;5113429;27;20101;-75
2022/01/13 04:59:26;;;;;;;207.00;26.70;;;;;;;-146.64;100.00;102134.31;5115970;27;20145;-76
2022/01/13 05:01:51;;;;;;;184.77;25.83;;;;;;;-146.64;100.00;102400.44;5111079;27;20043;-75
2022/01/13 05:04:16;;;;;;;215.13;25.63;;;;;;;-146.64;100.00;102134.31;5094642;27;20036;-75
2022/01/13 05:06:42;;;;;;;200.93;25.77;;;;;;;-146.64;100.00;102134.31;5128699;27;20103;-75
2022/01/13 05:09:07;;;;;;;269.80;26.90;;;;;;;-146.64;100.00;102134.31;5089034;28;20031;-75
2022/01/13 05:11:32;;;;;;;278.90;27.17;;;;;;;-146.64;100.00;102134.31;5126221;27;20348;-75
2022/01/13 05:13:58;;;;;;;222.27;25.48;;;;;;;-146.64;100.00;102134.31;5117401;27;20064;-75
2022/01/13 05:16:34;;;;;;;213.13;27.27;;;;;;;-146.64;100.00;102134.31;5115805;27;20398;-75
2022/01/13 05:24:14;;;;;;;191.27;25.05;;;;;;;-146.64;100.00;102400.44;5117524;27;20041;-75
2022/01/13 05:26:40;;;;;;;185.77;24.23;;;;;;;-146.64;100.00;102400.44;5104129;27;20023;-75
2022/01/13 05:29:05;;;;;;;190.80;26.00;;;;;;;-146.64;100.00;102400.44;5087845;27;20106;-75
2022/01/13 05:31:30;;;;;;;143.60;25.50;;;;;;;-146.64;100.00;102400.44;5085640;27;20039;-75
2022/01/13 05:33:56;;;;;;;201.50;27.48;;;;;;;-146.64;100.00;102134.31;5114560;27;20031;-75
2022/01/13 05:36:21;;;;;;;193.77;27.17;;;;;;;-146.64;100.00;102400.44;5096142;27;20035;-75
2022/01/13 05:38:47;;;;;;;204.55;27.45;;;;;;;-146.64;100.00;102134.31;5098518;27;20551;-75
2022/01/13 05:41:12;;;;;;;208.82;27.27;;;;;;;-146.64;100.00;102134.31;5105717;27;20027;-75
2022/01/13 05:43:38;;;;;;;193.35;27.20;;;;;;;-146.64;100.00;102134.31;5105777;27;20027;-75
2022/01/13 05:46:04;;;;;;;209.65;25.73;;;;;;;-146.64;100.00;102134.31;5094679;27;20015;-75
2022/01/13 05:48:31;;;;;;;201.80;25.38;;;;;;;-146.64;100.00;102134.31;5103312;27;20469;-75
2022/01/13 05:50:56;;;;;;;183.27;24.02;;;;;;;-146.64;100.00;102400.44;5096191;27;20024;-75
2022/01/13 05:53:21;;;;;;;159.88;24.65;;;;;;;-146.64;100.00;102400.44;5110330;27;20081;-75
2022/01/13 05:55:46;;;;;;;140.10;25.60;;;;;;;-146.64;100.00;102134.31;5111535;27;20076;-75
2022/01/13 05:58:12;;;;;;;163.18;28.63;;;;;;;-146.64;100.00;102134.31;5114790;27;20091;-75
2022/01/13 06:00:38;;;;;;;163.88;25.52;;;;;;;-146.64;100.00;102134.31;5127841;27;20432;-75
2022/01/13 06:03:04;;;;;;;156.57;24.73;;;;;;;-146.64;100.00;102134.31;5113971;27;20022;-76
2022/01/13 06:05:30;;;;;;;171.45;27.95;;;;;;;-146.64;100.00;102134.31;5104223;27;20478;-75
2022/01/13 06:07:55;;;;;;;148.50;25.70;;;;;;;-146.64;100.00;102134.31;5106760;27;20138;-75
2022/01/13 06:10:21;;;;;;;150.85;26.85;;;;;;;-146.64;100.00;102134.31;5131238;27;20027;-75
2022/01/13 06:12:51;;;;;;;145.57;25.67;;;;;;;-146.64;100.00;102134.31;5109850;27;20552;-75
2022/01/13 06:15:19;;;;;;;132.90;25.17;;;;;;;-146.64;100.00;102134.31;5092389;27;20126;-75
2022/01/13 06:17:46;;;;;;;169.43;27.67;;;;;;;-146.64;100.00;102134.31;5094340;28;20031;-75
2022/01/13 06:20:12;;;;;;;138.65;25.73;;;;;;;-146.64;100.00;102134.31;5111582;27;20023;-75
2022/01/13 06:22:39;;;;;;;142.75;26.52;;;;;;;-146.64;100.00;102400.44;5100664;28;20032;-75
2022/01/13 06:25:05;;;;;;;;;;;;;;;-146.64;100.00;102400.44;5131178;27;20356;-75
2022/01/13 06:27:31;;;;;;;143.48;24.45;;;;;;;-146.64;100.00;102134.31;5108459;27;19912;-75
2022/01/13 06:29:56;;;;;;;146.20;24.92;;;;;;;-146.64;100.00;102134.31;5095473;27;20019;-75
2022/01/13 06:32:22;;;;;;;132.18;22.55;;;;;;;-146.64;100.00;102134.31;5096677;27;20054;-75
2022/01/13 06:34:51;;;;;;;152.20;24.75;;;;;;;-146.64;100.00;102134.31;5104952;28;20123;-74
2022/01/13 06:37:17;;;;;;;112.38;22.60;;;;;;;-146.64;100.00;102134.31;5096850;27;20023;-75
2022/01/13 06:39:42;;;;;;;147.43;25.13;;;;;;;-146.64;100.00;102134.31;5093935;28;20032;-75
2022/01/13 06:42:08;;;;;;;138.80;25.58;;;;;;;-146.64;100.00;102134.31;5096413;27;20026;-74
2022/01/13 06:44:33;;;;;;;129.93;24.40;;;;;;;-146.64;100.00;102134.31;5113330;27;20046;-74
2022/01/13 06:46:59;;;;;;;148.25;23.90;;;;;;;-146.64;100.00;102134.31;5112971;27;20039;-74
2022/01/13 06:49:24;;;;;;;118.53;22.55;;;;;;;-146.64;100.00;102134.31;5096979;27;20042;-74
2022/01/13 06:51:49;;;;;;;111.18;24.27;;;;;;;-146.64;100.00;102134.31;5096629;27;20105;-74
2022/01/13 06:54:15;;;;;;;145.35;25.15;;;;;;;-146.64;100.00;102134.31;5109039;27;20034;-74
2022/01/13 06:56:41;;;;;;;111.72;24.38;;;;;;;-146.64;100.00;102134.31;5119751;27;20457;-74
2022/01/13 06:59:11;;;;;;;152.55;26.42;;;;;;;-146.64;100.00;101868.22;5088730;27;20114;-74
2022/01/13 07:01:40;;;;;;;131.43;26.90;;;;;;;-146.64;100.00;101868.22;5095937;27;20054;-74
2022/01/13 07:04:09;;;;;;;112.32;26.15;;;;;;;-146.64;100.00;101868.22;5103612;27;20431;-75
2022/01/13 07:06:35;;;;;;;137.05;26.17;;;;;;;-146.64;100.00;101868.22;5107148;27;20023;-74
2022/01/13 07:09:00;;;;;;;125.53;26.00;;;;;;;-146.64;100.00;101868.22;5102815;27;20031;-74
2022/01/13 07:11:26;;;;;;;139.63;25.30;;;;;;;-146.64;100.00;101868.22;5112455;27;20048;-74
2022/01/13 07:13:51;;;;;;;146.35;27.38;;;;;;;-146.64;100.00;101868.22;5085607;27;20473;-74
2022/01/13 07:16:17;;;;;;;153.88;27.13;;;;;;;-146.64;100.00;102134.31;5111206;27;20102;-74
2022/01/13 07:18:43;;;;;;;137.65;28.02;;;;;;;-146.64;100.00;102134.31;5113917;27;20027;-75
2022/01/13 07:21:09;;;;;;;109.82;26.50;;;;;;;-146.64;100.00;102134.31;5130426;27;20038;-75
2022/01/13 07:23:35;;;;;;;130.60;25.55;;;;;;;-146.64;100.00;102134.31;5113495;27;20050;-75
2022/01/13 07:26:02;;;;;;;143.15;26.63;;;;;;;-146.64;100.00;102134.31;5110915;27;20058;-75
2022/01/13 07:28:29;;;;;;;102.00;23.77;;;;;;;-146.64;100.00;102134.31;5131693;27;20034;-74
2022/01/13 07:30:54;;;;;;;187.27;25.50;;;;;;;-146.64;100.00;102134.31;5128169;27;20034;-74
2022/01/13 07:33:19;;;;;;;126.97;23.38;;;;;;;-146.64;100.00;102134.31;5091472;27;20421;-74
2022/01/13 07:35:45;;;;;;;179.98;22.08;;;;;;;-146.64;100.00;102134.31;5108316;27;20506;-74
2022/01/13 07:38:10;;;;;;;160.40;22.50;;;;;;;-146.64;100.00;102134.31;5113272;27;20259;-74
2022/01/13 07:40:35;;;;;;;138.55;22.40;;;;;;;-146.64;100.00;102134.31;5100224;27;20080;-75
2022/01/13 07:43:00;;;;;;;133.05;21.92;;;;;;;-146.64;100.00;102134.31;5110138;27;20517;-74
2022/01/13 07:45:26;;;;;;;109.80;23.38;;;;;;;-146.64;100.00;102134.31;5092532;28;20115;-74
2022/01/13 07:47:51;;;;;;;122.55;23.27;;;;;;;-146.64;100.00;102134.31;5129177;27;20035;-74
2022/01/13 07:50:17;;;;;;;146.90;23.02;;;;;;;-146.64;100.00;102134.31;5124285;27;20019;-74
2022/01/13 07:52:42;;;;;;;120.90;23.33;;;;;;;-146.64;100.00;102134.31;5113052;27;20771;-74
2022/01/13 07:55:09;;;;;;;119.07;23.10;;;;;;;-146.64;100.00;102134.31;5109433;27;20030;-74
2022/01/13 07:57:34;;;;;;;138.88;23.67;;;;;;;-146.64;100.00;102134.31;5111979;27;20474;-74
2022/01/13 07:59:59;;;;;;;97.22;24.00;;;;;;;-146.64;100.00;102134.31;5098381;27;20031;-75
2022/01/13 08:02:25;;;;;;;148.05;23.48;;;;;;;-146.64;100.00;102134.31;5102889;27;20045;-74
2022/01/13 08:04:50;;;;;;;118.78;23.45;;;;;;;-146.64;100.00;101868.22;5094860;27;20027;-74
2022/01/13 08:07:16;;;;;;;129.95;23.50;;;;;;;-146.64;100.00;102134.31;5108393;27;20062;-75
2022/01/13 08:09:42;;;;;;;167.93;21.03;;;;;;;-146.64;100.00;101868.22;5109366;27;20019;-75
2022/01/13 08:12:07;;;;;;;100.75;20.92;;;;;;;-146.64;100.00;101868.22;5116727;27;20034;-75
2022/01/13 08:14:33;;;;;;;113.35;21.70;;;;;;;-146.64;100.00;101868.22;5102259;27;20030;-75
2022/01/13 08:17:00;;;;;;;134.55;21.00;;;;;;;-146.64;100.00;101868.22;5112739;27;20110;-76
2022/01/13 08:22:09;;;;;;;159.23;22.30;;;;;;;-146.64;100.00;101602.13;5123360;27;20500;-75
2022/01/13 08:24:35;;;;;;;106.32;20.80;;;;;;;-146.64;100.00;101602.13;5090330;27;20105;-75
2022/01/13 08:27:00;;;;;;;111.43;19.58;;;;;;;-146.64;100.00;101602.13;5084374;27;20029;-75
2022/01/13 08:29:25;;;;;;;191.43;22.65;;;;;;;-146.64;100.00;101602.13;5124095;27;20055;-75
2022/01/13 08:31:51;;;;;;;143.90;21.95;;;;;;;-146.64;100.00;101602.13;5109459;27;20038;-75
2022/01/13 08:34:16;;;;;;;137.05;21.63;;;;;;;-146.64;100.00;101602.13;5103493;27;20038;-75
2022/01/13 08:36:42;;;;;;;162.25;24.38;;;;;;;-146.64;100.00;101602.13;5127830;27;20023;-75
2022/01/13 08:39:08;;;;;;;134.27;20.52;;;;;;;-146.64;100.00;101336.06;5094945;28;20599;-75
2022/01/13 08:41:33;;;;;;;162.32;23.85;;;;;;;-146.64;100.00;101336.06;5112270;27;20023;-75
2022/01/13 08:43:59;;;;;;;115.95;22.88;;;;;;;-146.64;100.00;101336.06;5102456;28;20505;-75
2022/01/13 08:46:25;;;;;;;150.85;21.88;;;;;;;-146.64;100.00;101070.00;5101984;27;20026;-75
2022/01/13 08:48:52;;;;;;;154.57;22.50;;;;;;;-146.64;100.00;101336.06;5098747;28;20031;-75
2022/01/13 08:51:18;;;;;;;147.40;23.05;;;;;;;-146.64;100.00;101070.00;5128932;27;20800;-75
2022/01/13 08:53:44;;;;;;;145.23;22.77;;;;;;;-146.64;100.00;101070.00;5105414;28;20376;-75
2022/01/13 08:56:09;;;;;;;135.88;21.70;;;;;;;-146.64;100.00;101070.00;5109918;28;20037;-75
2022/01/13 08:58:35;;;;;;;147.25;22.35;;;;;;;-146.64;100.00;100803.97;5109739;28;20564;-75
2022/01/13 09:01:00;;;;;;;161.35;22.48;;;;;;;-146.64;100.00;100803.97;5094726;27;20054;-75
2022/01/13 09:03:25;;;;;;;196.85;22.73;;;;;;;-146.64;100.00;100803.97;5112070;28;20028;-75
2022/01/13 09:05:51;;;;;;;156.90;21.15;;;;;;;-146.64;100.00;100803.97;5109861;28;20054;-75
2022/01/13 09:08:16;;;;;;;181.38;22.02;;;;;;;-146.64;100.00;100537.94;5102409;28;20055;-75
2022/01/13 09:10:42;;;;;;;182.23;23.15;;;;;;;-146.64;100.00;100537.94;5124004;27;20102;-75
2022/01/13 09:13:11;;;;;;;142.95;20.10;;;;;;;-146.64;100.00;100537.94;5111952;28;20023;-75
2022/01/13 09:15:41;;;;;;;165.73;21.85;;;;;;;-146.64;100.00;100537.94;5110858;28;20039;-75
2022/01/13 09:18:15;;;;;;;150.40;20.20;;;;;;;-146.64;100.00;100271.94;5094097;28;20071;-75
2022/01/13 09:20:41;;;;;;;127.05;20.15;;;;;;;-146.64;100.00;100271.94;5108616;27;20039;-75
2022/01/13 09:23:07;;;;;;;199.20;20.13;;;;;;;-146.64;100.00;100005.94;5100483;28;20539;-75
2022/01/13 09:25:33;;;;;;;173.70;23.60;;;;;;;-146.64;100.00;99739.97;5091660;27;20079;-75
2022/01/13 09:27:59;;;;;;;128.15;20.27;;;;;;;-146.64;100.00;99739.97;5111440;27;20031;-75
2022/01/13 09:30:25;;;;;;;179.23;20.05;;;;;;;-146.64;100.00;99739.97;5127769;27;20051;-75
2022/01/13 09:32:51;;;;;;;166.55;21.20;;;;;;;-146.64;100.00;99474.03;5118583;27;20126;-75
2022/01/13 09:35:16;;;;;;;160.63;20.52;;;;;;;-146.64;100.00;99474.03;5088864;27;20042;-76
2022/01/13 09:37:41;;;;;;;159.43;20.13;;;;;;;-146.64;100.00;99474.03;5094578;27;20044;-75
2022/01/13 09:40:09;;;;;;;140.00;21.30;;;;;;;-146.64;100.00;99474.03;5114822;27;20026;-75
2022/01/13 09:42:35;;;;;;;141.27;21.00;;;;;;;-146.64;100.00;99474.03;5096371;27;20038;-75
2022/01/13 09:45:03;;;;;;;172.95;21.48;;;;;;;-146.64;100.00;99208.09;5096626;27;20027;-75
2022/01/13 09:47:29;;;;;;;150.20;21.45;;;;;;;-146.64;100.00;99474.03;5102046;28;20114;-75
2022/01/13 09:49:55;;;;;;;121.55;21.02;;;;;;;-146.64;100.00;99208.09;5111371;27;20487;-75
2022/01/13 09:52:21;;;;;;;158.85;21.02;;;;;;;-146.64;100.00;99208.09;5133456;27;20070;-75
2022/01/13 09:54:47;;;;;;;146.98;23.35;;;;;;;-146.64;100.00;98942.19;5096710;27;20021;-75
2022/01/13 09:57:13;;;;;;;189.32;25.02;;;;;;;-146.64;100.00;98942.19;5112006;27;20031;-75
2022/01/13 09:59:38;;;;;;;195.55;26.90;;;;;;;-146.64;100.00;98942.19;5107112;28;20032;-75
2022/01/13 10:02:03;;;;;;;187.70;25.38;;;;;;;-146.64;100.00;98676.28;5141569;27;20573;-75
2022/01/13 10:04:49;;;;;;;169.63;26.42;;;;;;;-146.64;100.00;98676.28;5096456;27;20123;-75
2022/01/13 10:07:29;;;;;;;180.02;26.90;;;;;;;-146.64;100.00;98410.41;5091855;27;20081;-75
2022/01/13 10:09:56;;;;;;;169.80;25.98;;;;;;;-146.64;100.00;98410.41;5096673;27;20040;-76
2022/01/13 10:12:33;;;;;;;195.00;23.80;;;;;;;-146.64;100.00;97878.69;5110721;27;20019;-75
2022/01/13 10:17:28;;;;;;;145.93;25.20;;;;;;;-146.64;100.00;97612.84;5110523;27;20058;-75
2022/01/13 10:19:57;;;;;;;179.68;24.48;;;;;;;-146.64;100.00;97347.03;5108325;27;20032;-75
2022/01/13 10:22:31;;;;;;;113.03;20.77;;;;;;;-146.64;100.00;97612.84;5094482;27;20513;-75
2022/01/13 10:24:58;;;;;;;100.93;18.77;;;;;;;-146.64;100.00;97347.03;5107806;27;20034;-75
2022/01/13 10:27:32;;;;;;;113.45;20.20;;;;;;;-146.64;100.00;96815.47;5110584;27;20031;-75
2022/01/13 10:30:00;;;;;;;141.93;22.98;;;;;;;-146.64;100.00;96549.72;5089409;28;20052;-75
2022/01/13 10:32:31;;;;;;;79.53;17.88;;;;;;;-146.64;100.00;96283.97;5086282;27;20499;-75
2022/01/13 10:35:11;;;;;;;109.80;18.90;;;;;;;-146.64;100.00;96283.97;5114528;27;20172;-75
2022/01/13 10:37:38;;;;;;;91.57;19.15;;;;;;;-146.64;100.00;96283.97;5109298;27;20397;-75
2022/01/13 10:40:08;;;;;;;79.38;18.75;;;;;;;-146.64;100.00;96018.25;5096648;27;20027;-75
2022/01/13 10:45:11;;;;;;;85.00;19.88;;;;;;;-146.64;100.00;95486.84;5130723;27;20031;-75
2022/01/13 10:47:38;;;;;;;83.57;18.98;;;;;;;-146.64;100.00;95221.19;5095187;27;20027;-75
2022/01/13 10:50:08;;;;;;;81.68;18.77;;;;;;;-146.64;100.00;95486.84;5110042;27;20019;-75
2022/01/13 10:52:33;;;;;;;86.93;19.27;;;;;;;-146.64;100.00;94955.53;5112046;27;20047;-75
2022/01/13 10:55:03;;;;;;;92.63;20.80;;;;;;;-146.64;100.00;94955.53;5106812;27;20367;-75
2022/01/13 10:57:29;;;;;;;79.78;20.73;;;;;;;-146.64;100.00;94955.53;5112893;27;20451;-75
2022/01/13 10:59:54;;;;;;;98.53;21.90;;;;;;;-146.64;100.00;94955.53;5095341;27;20033;-75
2022/01/13 11:02:20;;;;;;;86.72;21.20;;;;;;;-146.64;100.00;95221.19;5113806;27;20031;-75